Terminal Aerodrome Forecast
Issued by NWS Cleveland, OH

Home | Current Version | Previous Version | Text Only | Print | Product List | Glossary On
Versions: 1 2 3 4 5 6 7 8 9 10 11 12 13 14 15
000
FTUS41 KCLE 211123
TAFYNG
TAF
KYNG 211123Z 2112/2212 20012G18KT P6SM SCT050 BKN080
     FM211400 25012KT 6SM -SHRA BKN035 OVC060
     FM211600 30012KT 4SM -SHRA BR OVC007
     FM212000 34011KT 6SM -SHRA BR SCT010 OVC020
     FM220500 01009KT P6SM VCSH OVC015
     FM220700 02008KT 3SM -FZRAPLSN BR OVC014=

USA.gov is the U.S. government's official web portal to all federal, state and local government web resources and services.